No data was retrieved for https://query.yahooapis.com/v1/public/yql?q=select+%2A+from+weather.forecast+where+woeid%3D731260&format=xml&u=c



METAR rapporten vliegvelden

   
EHAM - Amsterdam
Gewijzigd: 27-06-2019 05:25
Gedeeltelijk bewolkt  
Gedeeltelijk bewolkt  
   Wind: NNO 14.8 km/h
Wind: NNO 14.8 km/h
Temperatuur: 14°C
Dauwpunt: 11°C
Vochtigheid: 82%
Barometer: 1029 hPa
Bewolking: Gedeeltelijk bewolkt
Zicht: meer dan 10 km
Bewolking: Gedeeltelijk bewolkt 1600 ft
EHAM 270325Z 03008KT 340V060 9999 SCT016 14/11 Q1029 NOSIG
EHBK - Maastricht
Gewijzigd: 27-06-2019 05:25
Helder  
Helder  
   Wind: NNO 20.4 km/h
Wind: NNO 20.4 km/h
Temperatuur: 15°C
Dauwpunt: 13°C
Vochtigheid: 88%
Barometer: 1027 hPa
Bewolking: Helder
Zicht: meer dan 10 km
Bewolking: Helder
EHBK 270325Z AUTO 03011KT 9999 NCD 15/13 Q1027 BECMG BKN013
ELLX - Luxemburg
Gewijzigd: 27-06-2019 05:20
Helder  
Helder  
   Wind: NO 24.1 km/h
Wind: NO 24.1 km/h
Temperatuur: 21°C
Dauwpunt: 17°C
Vochtigheid: 78%
Barometer: 1025 hPa
Zicht: meer dan 10 km
Bewolking: Helder
ELLX 270320Z 04013KT CAVOK 21/17 Q1025 NOSIG
EDDL - Dusseldorf
Gewijzigd: 27-06-2019 05:20
Grotendeels bewolkt  
Grotendeels bewolkt  
   Wind: Noorden 14.8 km/h
Wind: Noorden 14.8 km/h
Temperatuur: 16°C
Dauwpunt: 13°C
Vochtigheid: 83%
Barometer: 1027 hPa
Bewolking: Grotendeels bewolkt
Zicht: meer dan 10 km
Bewolking: Grotendeels bewolkt 1300 ft
EDDL 270320Z 01008KT 340V040 9999 BKN013 16/13 Q1027 BECMG BKN015
  

Script ontwikkeld door  Saratoga-weather.org Aangepast voor de template door  Weerstation Leuven